Time;durP1;ratioP1;P1;durP2;ratioP2;P2;SDS_P1;SDS_P2;PMS_P1;PMS_P2;Temp;Humidity;BMP_temperature;BMP_pressure;BME280_temperature;BME280_humidity;BME280_pressure;Samples;Min_cycle;Max_cycle;Signal;HPM_P1;HPM_P2
2023/01/24 04:02:45;;;;;;;;;;;2.00;99.90;;;;;;5162120;22;19987;-72
2023/01/24 04:05:17;;;;;;;;;;;2.00;99.90;;;;;;4997820;28;19958;-72
2023/01/24 04:07:44;;;;;;;;;;;1.90;99.90;;;;;;4996961;28;20319;-71
2023/01/24 04:10:11;;;;;;;;;;;2.00;99.90;;;;;;5004684;28;19965;-72
2023/01/24 04:12:46;;;;;;;;;;;2.00;99.90;;;;;;4998502;28;19926;-72
2023/01/24 04:15:15;;;;;;;;;;;2.00;99.90;;;;;;4997197;28;19929;-73
2023/01/24 04:17:44;;;;;;;;;;;2.00;99.90;;;;;;4998720;28;19949;-71
2023/01/24 04:20:14;;;;;;;;;;;2.00;99.90;;;;;;5004623;28;19936;-72
2023/01/24 04:22:40;;;;;;;;;;;2.00;99.90;;;;;;5000244;28;19930;-72
2023/01/24 04:25:08;;;;;;;;;;;2.00;99.90;;;;;;5004703;28;19930;-73
2023/01/24 04:27:35;;;;;;;;;;;2.00;99.90;;;;;;5019865;28;19976;-72
2023/01/24 04:30:06;;;;;;;;;;;2.00;99.90;;;;;;5005645;28;20395;-73
2023/01/24 04:32:35;;;;;;;;;;;2.00;99.90;;;;;;5003061;28;19925;-72
2023/01/24 04:35:07;;;;;;;;;;;2.00;99.90;;;;;;5002940;28;19930;-73
2023/01/24 04:37:49;;;;;;;;;;;2.00;99.90;;;;;;5004500;28;19930;-72
2023/01/24 04:40:23;;;;;;;;;;;2.00;99.90;;;;;;5003800;28;19936;-72
2023/01/24 04:42:50;;;;;;;;;;;1.90;99.90;;;;;;5005230;28;19925;-72
2023/01/24 04:45:17;;;;;;;;;;;1.90;99.90;;;;;;4993417;28;19969;-73
2023/01/24 04:47:44;;;;;;;;;;;2.00;99.90;;;;;;5002695;28;19926;-71
2023/01/24 04:50:11;;;;;;;;;;;1.90;99.90;;;;;;4997507;28;19926;-72
2023/01/24 04:52:37;;;;;;;;;;;1.90;99.90;;;;;;5005065;28;19948;-71
2023/01/24 04:55:09;;;;;;;;;;;1.90;99.90;;;;;;5000431;28;19930;-72
2023/01/24 04:57:36;;;;;;;;;;;1.90;99.90;;;;;;5004587;28;20328;-72
2023/01/24 05:00:03;;;;;;;;;;;1.90;99.90;;;;;;5003760;28;20387;-71
2023/01/24 05:02:32;;;;;;;;;;;1.90;99.90;;;;;;5002606;28;19925;-71
2023/01/24 05:05:00;;;;;;;;;;;1.90;99.90;;;;;;5002934;28;20511;-71
2023/01/24 05:07:27;;;;;;;;;;;2.00;99.90;;;;;;5002451;28;19972;-72
2023/01/24 05:10:00;;;;;;;;;;;2.00;99.90;;;;;;5010374;28;19932;-71
2023/01/24 05:12:28;;;;;;;;;;;1.90;99.90;;;;;;5006078;28;20343;-73
2023/01/24 05:14:58;;;;;;;;;;;2.00;99.90;;;;;;4999378;28;19925;-72
2023/01/24 05:17:25;;;;;;;;;;;2.00;99.90;;;;;;5007926;28;19925;-73
2023/01/24 05:19:55;;;;;;;;;;;2.00;99.90;;;;;;5008678;28;19948;-72
2023/01/24 05:22:22;;;;;;;;;;;2.00;99.90;;;;;;4997933;28;19940;-71
2023/01/24 05:24:50;;;;;;;;;;;2.00;99.90;;;;;;5002282;28;19926;-72
2023/01/24 05:27:17;;;;;;;;;;;2.00;99.90;;;;;;5003786;28;20344;-73
2023/01/24 05:29:50;;;;;;;;;;;1.90;99.90;;;;;;5003952;28;19965;-73
2023/01/24 05:32:17;;;;;;;;;;;2.00;99.90;;;;;;5001222;28;19929;-71
2023/01/24 05:34:44;;;;;;;;;;;2.00;99.90;;;;;;5004755;28;19987;-70
2023/01/24 05:37:11;;;;;;;;;;;1.90;99.90;;;;;;5000752;28;20411;-71
2023/01/24 05:39:42;;;;;;;;;;;1.90;99.90;;;;;;5003807;28;20397;-72
2023/01/24 05:42:09;;;;;;;;;;;1.90;99.90;;;;;;5001489;28;19951;-70
2023/01/24 05:44:42;;;;;;;;;;;2.00;99.90;;;;;;5003931;28;19933;-71
2023/01/24 05:47:11;;;;;;;;;;;2.00;99.90;;;;;;5000717;28;19930;-70
2023/01/24 05:49:40;;;;;;;;;;;1.90;99.90;;;;;;4998616;28;19925;-71
2023/01/24 05:52:07;;;;;;;;;;;1.90;99.90;;;;;;5005403;28;19965;-70
2023/01/24 05:54:54;;;;;;;;;;;1.90;99.90;;;;;;5002271;28;19948;-70
2023/01/24 05:57:36;;;;;;;;;;;1.90;99.90;;;;;;4995626;28;19925;-71
2023/01/24 06:00:15;;;;;;;;;;;2.00;99.90;;;;;;4997550;28;20037;-70
2023/01/24 06:02:46;;;;;;;;;;;2.00;99.90;;;;;;5004225;28;19933;-71
2023/01/24 06:05:13;;;;;;;;;;;1.90;99.90;;;;;;4995659;28;19929;-71
2023/01/24 06:07:40;;;;;;;;;;;1.90;99.90;;;;;;5000489;28;20355;-70
2023/01/24 06:10:07;;;;;;;;;;;1.90;99.90;;;;;;4997133;28;19926;-71
2023/01/24 06:12:45;;;;;;;;;;;1.90;99.90;;;;;;5022801;28;19950;-70
2023/01/24 06:15:13;;;;;;;;;;;1.90;99.90;;;;;;4995463;28;19926;-71
2023/01/24 06:17:40;;;;;;;;;;;1.90;99.90;;;;;;4997616;28;19933;-73
2023/01/24 06:20:11;;;;;;;;;;;1.90;99.90;;;;;;5002180;28;19933;-73
2023/01/24 06:22:42;;;;;;;;;;;1.90;99.90;;;;;;4999264;28;19926;-73
2023/01/24 06:25:13;;;;;;;;;;;1.90;99.90;;;;;;4999270;28;19933;-72
2023/01/24 06:27:47;;;;;;;;;;;1.90;99.90;;;;;;4998781;28;19980;-73
2023/01/24 06:30:14;;;;;;;;;;;1.90;99.90;;;;;;5008551;28;19937;-70
2023/01/24 06:32:48;;;;;;;;;;;1.90;99.90;;;;;;4995742;28;19926;-73
2023/01/24 06:35:18;;;;;;;;;;;1.90;99.90;;;;;;5004275;28;20424;-72
2023/01/24 06:37:46;;;;;;;;;;;1.80;99.90;;;;;;5000717;28;19930;-73
2023/01/24 06:40:14;;;;;;;;;;;1.90;99.90;;;;;;5002084;28;19930;-73
2023/01/24 06:42:41;;;;;;;;;;;1.90;99.90;;;;;;5003825;28;19976;-72
2023/01/24 06:45:09;;;;;;;;;;;1.90;99.90;;;;;;5001185;28;20336;-72
2023/01/24 06:47:36;;;;;;;;;;;1.90;99.90;;;;;;5005629;28;19926;-72
2023/01/24 06:50:04;;;;;;;;;;;1.90;99.90;;;;;;4996667;28;19961;-71
2023/01/24 06:52:32;;;;;;;;;;;1.90;99.90;;;;;;5006399;28;20009;-73
2023/01/24 06:54:59;;;;;;;;;;;1.90;99.90;;;;;;4994153;28;19926;-71
2023/01/24 06:57:26;;;;;;;;;;;1.80;99.90;;;;;;5014596;28;20384;-72
2023/01/24 06:59:53;;;;;;;;;;;1.80;99.90;;;;;;4981809;28;20486;-72
2023/01/24 07:02:19;;;;;;;;;;;1.80;99.90;;;;;;4996059;28;19926;-72
2023/01/24 07:04:46;;;;;;;;;;;1.90;99.90;;;;;;4990549;28;19929;-73
2023/01/24 07:07:13;;;;;;;;;;;1.90;99.90;;;;;;5002503;28;20452;-73
2023/01/24 07:09:41;;;;;;;;;;;1.90;99.90;;;;;;5001105;28;19925;-74
2023/01/24 07:12:08;;;;;;;;;;;1.90;99.90;;;;;;5000795;28;20024;-72
2023/01/24 07:14:35;;;;;;;;;;;1.90;99.90;;;;;;5001692;28;19930;-73
2023/01/24 07:17:02;;;;;;;;;;;1.90;99.90;;;;;;4997825;28;19926;-72
2023/01/24 07:19:29;;;;;;;;;;;1.90;99.90;;;;;;5017698;28;20356;-70
2023/01/24 07:21:56;;;;;;;;;;;1.90;99.90;;;;;;5004194;28;19937;-72
2023/01/24 07:24:25;;;;;;;;;;;1.90;99.90;;;;;;4999881;28;20025;-72
2023/01/24 07:26:53;;;;;;;;;;;1.90;99.90;;;;;;4997345;28;19973;-73
2023/01/24 07:29:20;;;;;;;;;;;1.90;99.90;;;;;;5003543;28;19929;-72
2023/01/24 07:31:48;;;;;;;;;;;1.90;99.90;;;;;;5001210;28;19941;-73
2023/01/24 07:34:15;;;;;;;;;;;1.80;99.90;;;;;;4998134;28;19969;-72
2023/01/24 07:36:42;;;;;;;;;;;1.80;99.90;;;;;;5004739;28;19929;-74
2023/01/24 07:39:09;;;;;;;;;;;1.80;99.90;;;;;;4995157;28;20048;-73
2023/01/24 07:41:36;;;;;;;;;;;1.80;99.90;;;;;;5001439;28;20041;-72
2023/01/24 07:44:05;;;;;;;;;;;1.90;99.90;;;;;;4998599;28;19925;-74
2023/01/24 07:46:32;;;;;;;;;;;1.90;99.90;;;;;;5002124;28;19934;-72
2023/01/24 07:48:59;;;;;;;;;;;1.90;99.90;;;;;;4998786;28;19976;-72
2023/01/24 07:51:26;;;;;;;;;;;1.80;99.90;;;;;;5013127;28;19926;-72
2023/01/24 07:53:53;;;;;;;;;;;1.90;99.90;;;;;;4992028;28;19929;-73
2023/01/24 07:56:19;;;;;;;;;;;1.90;99.90;;;;;;4996769;28;20304;-73
2023/01/24 07:58:46;;;;;;;;;;;1.90;99.90;;;;;;5000924;28;19925;-73
2023/01/24 08:01:17;;;;;;;;;;;1.90;99.90;;;;;;4996403;28;19925;-73
2023/01/24 08:03:44;;;;;;;;;;;1.90;99.90;;;;;;4991195;28;19981;-72
2023/01/24 08:06:11;;;;;;;;;;;1.90;99.90;;;;;;5005157;28;20400;-72
2023/01/24 08:08:39;;;;;;;;;;;1.90;99.90;;;;;;4997075;28;20448;-73
2023/01/24 08:11:06;;;;;;;;;;;2.00;99.90;;;;;;4996307;28;19932;-73
2023/01/24 08:13:32;;;;;;;;;;;2.00;99.90;;;;;;5000226;28;19926;-73
2023/01/24 08:16:00;;;;;;;;;;;2.00;99.90;;;;;;4997168;28;20418;-73
2023/01/24 08:18:28;;;;;;;;;;;2.10;99.90;;;;;;4993892;28;19925;-72
2023/01/24 08:20:55;;;;;;;;;;;2.10;99.90;;;;;;4996016;28;19977;-73
2023/01/24 08:23:22;;;;;;;;;;;2.10;99.90;;;;;;4997271;28;20461;-70
2023/01/24 08:25:49;;;;;;;;;;;2.10;99.90;;;;;;5005659;28;19925;-71
2023/01/24 08:28:16;;;;;;;;;;;2.10;99.90;;;;;;4999408;28;19930;-69
2023/01/24 08:30:43;;;;;;;;;;;2.20;99.90;;;;;;5002029;28;20375;-70
2023/01/24 08:33:13;;;;;;;;;;;2.20;99.90;;;;;;4995185;28;19926;-67
2023/01/24 08:35:41;;;;;;;;;;;2.20;99.90;;;;;;5001117;28;20392;-70
2023/01/24 08:38:09;;;;;;;;;;;2.30;99.90;;;;;;4991809;28;19972;-67
2023/01/24 08:40:35;;;;;;;;;;;2.30;99.90;;;;;;5000350;28;20036;-67
2023/01/24 08:43:02;;;;;;;;;;;2.30;99.90;;;;;;4996561;28;20320;-70
2023/01/24 08:45:29;;;;;;;;;;;2.30;99.90;;;;;;5001127;28;19969;-72
2023/01/24 08:47:56;;;;;;;;;;;2.30;99.90;;;;;;4992389;28;20021;-72
2023/01/24 08:50:22;;;;;;;;;;;2.40;99.90;;;;;;4993592;28;19972;-71
2023/01/24 08:52:54;;;;;;;;;;;2.30;99.90;;;;;;4995031;28;19965;-68
2023/01/24 08:55:21;;;;;;;;;;;2.30;99.90;;;;;;4999635;28;20049;-72
2023/01/24 08:57:47;;;;;;;;;;;2.40;99.90;;;;;;4999818;28;19937;-70
2023/01/24 09:00:15;;;;;;;;;;;2.40;99.90;;;;;;4981477;28;19926;-72
2023/01/24 09:02:41;;;;;;;;;;;2.50;99.90;;;;;;4997560;28;19949;-72
2023/01/24 09:05:09;;;;;;;;;;;2.50;99.90;;;;;;5000222;28;19933;-72
2023/01/24 09:07:37;;;;;;;;;;;2.50;99.90;;;;;;5002958;28;19934;-72
2023/01/24 09:10:05;;;;;;;;;;;2.50;99.90;;;;;;4998195;28;19926;-72
2023/01/24 09:12:32;;;;;;;;;;;2.50;99.90;;;;;;5002604;28;19934;-71
2023/01/24 09:14:59;;;;;;;;;;;2.60;99.90;;;;;;5002799;28;20033;-70
2023/01/24 09:17:26;;;;;;;;;;;2.60;99.90;;;;;;4999963;28;19936;-71
2023/01/24 09:19:53;;;;;;;;;;;2.60;99.90;;;;;;5015933;28;19932;-70
2023/01/24 09:22:19;;;;;;;;;;;2.70;99.90;;;;;;5001701;28;19925;-70
2023/01/24 09:24:46;;;;;;;;;;;2.70;99.90;;;;;;5002469;28;19926;-71
2023/01/24 09:27:15;;;;;;;;;;;2.70;99.90;;;;;;4998759;28;19926;-72
2023/01/24 09:29:42;;;;;;;;;;;2.70;99.90;;;;;;5000641;28;19925;-71
2023/01/24 09:32:08;;;;;;;;;;;2.70;99.90;;;;;;5004213;28;19926;-74
2023/01/24 09:34:35;;;;;;;;;;;2.80;99.90;;;;;;5005122;28;19930;-73
2023/01/24 09:37:02;;;;;;;;;;;2.80;99.90;;;;;;5001897;28;19925;-73
2023/01/24 09:39:29;;;;;;;;;;;2.80;99.90;;;;;;5005700;28;20044;-72
2023/01/24 09:41:59;;;;;;;;;;;2.80;99.90;;;;;;5000267;28;19930;-73
2023/01/24 09:44:35;;;;;;;;;;;2.80;99.90;;;;;;5001877;28;20016;-72
2023/01/24 09:47:03;;;;;;;;;;;2.80;99.90;;;;;;4992960;28;19925;-73
2023/01/24 09:49:34;;;;;;;;;;;2.80;99.90;;;;;;5007116;28;19933;-73
2023/01/24 09:52:02;;;;;;;;;;;2.80;99.90;;;;;;4999781;28;19929;-73
2023/01/24 09:54:32;;;;;;;;;;;2.80;99.90;;;;;;5001377;28;19972;-72
2023/01/24 09:56:59;;;;;;;;;;;2.80;99.90;;;;;;4989045;28;20355;-73
2023/01/24 09:59:34;;;;;;;;;;;2.80;99.90;;;;;;5004912;28;19951;-73
2023/01/24 10:02:02;;;;;;;;;;;2.80;99.90;;;;;;4994513;28;19938;-73
2023/01/24 10:04:31;;;;;;;;;;;2.90;99.90;;;;;;4994246;28;19933;-71
2023/01/24 10:07:06;;;;;;;;;;;2.90;99.90;;;;;;4998195;28;19925;-73
2023/01/24 10:09:36;;;;;;;;;;;3.00;99.90;;;;;;5003154;28;20183;-73
2023/01/24 10:12:11;;;;;;;;;;;3.00;99.90;;;;;;4991949;28;19926;-73
2023/01/24 10:14:43;;;;;;;;;;;3.10;99.90;;;;;;5000014;28;19991;-72
2023/01/24 10:17:26;;;;;;;;;;;3.10;99.90;;;;;;4995540;28;19976;-72
2023/01/24 10:19:57;;;;;;;;;;;3.10;99.90;;;;;;5014493;28;19930;-72
2023/01/24 10:22:30;;;;;;;;;;;3.00;99.90;;;;;;4998241;28;19932;-73
2023/01/24 10:24:59;;;;;;;;;;;3.00;99.90;;;;;;5009377;28;19942;-73
2023/01/24 10:27:28;;;;;;;;;;;3.00;99.90;;;;;;4997985;28;19926;-73
2023/01/24 10:29:58;;;;;;;;;;;3.10;99.90;;;;;;5009424;28;19977;-70
2023/01/24 10:32:30;;;;;;;;;;;3.10;99.90;;;;;;5003918;28;20351;-73
2023/01/24 10:34:58;;;;;;;;;;;3.10;99.90;;;;;;4995381;28;19976;-72
2023/01/24 10:37:26;;;;;;;;;;;3.10;99.90;;;;;;4996423;28;19949;-72
2023/01/24 10:39:53;;;;;;;;;;;3.20;99.90;;;;;;5000934;28;19936;-73
2023/01/24 10:42:23;;;;;;;;;;;3.10;99.90;;;;;;5000383;28;19926;-73
2023/01/24 10:44:52;;;;;;;;;;;3.00;99.90;;;;;;5003585;28;19926;-73
2023/01/24 10:47:32;;;;;;;;;;;3.00;99.90;;;;;;5008376;28;20392;-72
2023/01/24 10:49:59;;;;;;;;;;;3.00;99.90;;;;;;5003238;28;19925;-73
2023/01/24 10:52:27;;;;;;;;;;;3.10;99.90;;;;;;5002762;28;19936;-73
2023/01/24 10:54:55;;;;;;;;;;;3.10;99.90;;;;;;5015918;28;19933;-73
2023/01/24 10:57:34;;;;;;;;;;;3.20;99.90;;;;;;5000920;28;20601;-73
2023/01/24 11:00:22;;;;;;;;;;;3.20;99.90;;;;;;5004013;28;19925;-71
2023/01/24 11:02:52;;;;;;;;;;;3.20;99.90;;;;;;5000387;28;19934;-72
2023/01/24 11:05:20;;;;;;;;;;;3.10;99.90;;;;;;5007677;28;19929;-71
2023/01/24 11:07:48;;;;;;;;;;;3.20;99.90;;;;;;4999898;28;20347;-72
2023/01/24 11:10:19;;;;;;;;;;;3.20;99.90;;;;;;5007617;28;19926;-72
2023/01/24 11:12:53;;;;;;;;;;;3.30;99.90;;;;;;5001634;28;19938;-73
2023/01/24 11:15:22;;;;;;;;;;;3.30;99.90;;;;;;5003022;28;19936;-72
2023/01/24 11:17:54;;;;;;;;;;;3.40;99.90;;;;;;5003663;28;19925;-73
2023/01/24 11:20:23;;;;;;;;;;;3.40;99.90;;;;;;5017318;28;19981;-72
2023/01/24 11:22:51;;;;;;;;;;;3.40;99.90;;;;;;4999078;28;19926;-73
2023/01/24 11:25:17;;;;;;;;;;;3.40;99.90;;;;;;4995089;28;20582;-73
2023/01/24 11:27:48;;;;;;;;;;;3.50;99.90;;;;;;5003626;28;20494;-70
2023/01/24 11:30:16;;;;;;;;;;;3.50;99.90;;;;;;5000801;28;19925;-73
2023/01/24 11:32:48;;;;;;;;;;;3.50;99.90;;;;;;4992027;28;20396;-72
2023/01/24 11:35:19;;;;;;;;;;;3.50;99.90;;;;;;5003793;28;19925;-73
2023/01/24 11:38:16;;;;;;;;;;;3.60;99.90;;;;;;4996591;28;19933;-73
2023/01/24 11:40:43;;;;;;;;;;;3.60;99.90;;;;;;4935072;28;20392;-73
2023/01/24 11:43:17;;;;;;;;;;;3.60;99.90;;;;;;4979245;28;19926;-71
2023/01/24 11:45:54;;;;;;;;;;;3.60;99.90;;;;;;4994435;28;19932;-73
2023/01/24 11:48:22;;;;;;;;;;;3.60;99.90;;;;;;4995781;28;19926;-73
2023/01/24 11:50:59;;;;;;;;;;;3.60;99.90;;;;;;4994868;28;20364;-73
2023/01/24 11:53:39;;;;;;;;;;;3.60;99.90;;;;;;4994850;28;19926;-73
2023/01/24 11:56:10;;;;;;;;;;;3.50;99.90;;;;;;4994243;28;20083;-72
2023/01/24 11:58:53;;;;;;;;;;;3.50;99.90;;;;;;5002116;28;19933;-73
2023/01/24 12:01:24;;;;;;;;;;;3.50;99.90;;;;;;4997517;28;19925;-73
2023/01/24 12:04:03;;;;;;;;;;;3.50;99.90;;;;;;4999970;28;19930;-73
2023/01/24 12:06:37;;;;;;;;;;;3.40;99.90;;;;;;4988984;28;19926;-73
2023/01/24 12:09:12;;;;;;;;;;;3.50;99.90;;;;;;5000524;28;20347;-73
2023/01/24 12:11:41;;;;;;;;;;;3.50;99.90;;;;;;4998652;28;19926;-72
2023/01/24 12:14:16;;;;;;;;;;;3.50;99.90;;;;;;4980783;28;20339;-73
2023/01/24 12:16:48;;;;;;;;;;;3.60;99.90;;;;;;4997645;28;20416;-70
2023/01/24 12:19:36;;;;;;;;;;;3.60;99.90;;;;;;4985406;28;19926;-71
2023/01/24 12:22:10;;;;;;;;;;;3.70;99.90;;;;;;4974353;28;20439;-72
2023/01/24 12:24:38;;;;;;;;;;;3.70;99.90;;;;;;4991151;28;19926;-73
2023/01/24 12:27:07;;;;;;;;;;;3.70;99.90;;;;;;4994114;28;20356;-72
2023/01/24 12:29:38;;;;;;;;;;;3.70;99.90;;;;;;4993551;28;19926;-73
2023/01/24 12:32:08;;;;;;;;;;;3.70;99.90;;;;;;4999890;28;20368;-72
2023/01/24 12:34:43;;;;;;;;;;;3.80;99.90;;;;;;4996300;28;19930;-72
2023/01/24 12:37:16;;;;;;;;;;;3.70;99.90;;;;;;4994564;28;19956;-73
2023/01/24 12:39:46;;;;;;;;;;;3.80;99.90;;;;;;5008180;28;19926;-72
2023/01/24 12:42:16;;;;;;;;;;;3.80;99.90;;;;;;5011000;28;20383;-72
2023/01/24 12:44:46;;;;;;;;;;;3.80;99.90;;;;;;5007682;28;19925;-72
2023/01/24 12:47:17;;;;;;;;;;;3.80;99.90;;;;;;5001586;28;19930;-72
2023/01/24 12:49:48;;;;;;;;;;;3.70;99.90;;;;;;5004245;28;19926;-72
2023/01/24 12:52:21;;;;;;;;;;;3.70;99.90;;;;;;5005456;28;19934;-72
2023/01/24 12:54:49;;;;;;;;;;;3.70;99.90;;;;;;5004216;28;19925;-72
2023/01/24 12:57:20;;;;;;;;;;;3.70;99.90;;;;;;5002115;28;19930;-72
2023/01/24 12:59:46;;;;;;;;;;;3.70;99.90;;;;;;5000141;28;19933;-73
2023/01/24 13:02:30;;;;;;;;;;;3.70;99.90;;;;;;5005715;28;19930;-73
2023/01/24 13:05:03;;;;;;;;;;;3.70;99.90;;;;;;5012079;28;19929;-73
2023/01/24 13:07:37;;;;;;;;;;;3.70;99.90;;;;;;4998317;28;19937;-73
2023/01/24 13:10:11;;;;;;;;;;;3.70;99.90;;;;;;5005285;28;19925;-74
2023/01/24 13:12:38;;;;;;;;;;;3.70;99.90;;;;;;4996421;28;20367;-71
2023/01/24 13:15:06;;;;;;;;;;;3.70;99.90;;;;;;5001143;28;19932;-73
2023/01/24 13:17:44;;;;;;;;;;;3.80;99.90;;;;;;5004107;28;20356;-73
2023/01/24 13:20:25;;;;;;;;;;;3.70;99.90;;;;;;5002632;28;19979;-73
2023/01/24 13:23:01;;;;;;;;;;;3.60;99.90;;;;;;4997657;28;19925;-73
2023/01/24 13:25:40;;;;;;;;;;;3.60;99.90;;;;;;5001858;28;20387;-73
2023/01/24 13:28:12;;;;;;;;;;;3.70;99.90;;;;;;4991566;28;20339;-72
2023/01/24 13:30:44;;;;;;;;;;;3.70;99.90;;;;;;5000367;28;19930;-71
2023/01/24 13:33:13;;;;;;;;;;;3.70;99.90;;;;;;4997054;28;19926;-71
2023/01/24 13:35:46;;;;;;;;;;;3.70;99.90;;;;;;4999315;28;19939;-71
2023/01/24 13:38:18;;;;;;;;;;;3.70;99.90;;;;;;5002118;28;20355;-72
2023/01/24 13:40:56;;;;;;;;;;;3.70;99.90;;;;;;4997902;28;20459;-72
2023/01/24 13:43:42;;;;;;;;;;;3.70;99.90;;;;;;4993016;28;19948;-72
2023/01/24 13:46:09;;;;;;;;;;;3.70;99.90;;;;;;4990372;28;19984;-73
2023/01/24 13:48:56;;;;;;;;;;;3.70;99.90;;;;;;4993146;28;20339;-73
2023/01/24 13:51:29;;;;;;;;;;;3.70;99.90;;;;;;4995893;28;19933;-73
2023/01/24 13:54:01;;;;;;;;;;;3.70;99.90;;;;;;5000816;28;19925;-72
2023/01/24 13:56:28;;;;;;;;;;;3.70;99.90;;;;;;4998594;28;19933;-72
2023/01/24 13:58:55;;;;;;;;;;;3.70;99.90;;;;;;4994222;28;19934;-70
2023/01/24 14:01:23;;;;;;;;;;;3.60;99.90;;;;;;5000746;28;19934;-71
2023/01/24 14:03:54;;;;;;;;;;;3.60;99.90;;;;;;4997428;28;19925;-73
2023/01/24 14:06:21;;;;;;;;;;;3.60;99.90;;;;;;5001536;28;19925;-72
2023/01/24 14:08:49;;;;;;;;;;;3.60;99.90;;;;;;5000044;28;19933;-73
2023/01/24 14:11:37;;;;;;;;;;;3.60;99.90;;;;;;5003032;28;19930;-72
2023/01/24 14:14:18;;;;;;;;;;;3.60;99.90;;;;;;5016012;28;19926;-70
2023/01/24 14:17:12;;;;;;;;;;;3.60;99.90;;;;;;4995769;28;19980;-71
2023/01/24 14:19:46;;;;;;;;;;;3.60;99.90;;;;;;4992453;28;19926;-73
2023/01/24 14:22:21;;;;;;;;;;;3.60;99.90;;;;;;5003612;28;19926;-72
2023/01/24 14:25:05;;;;;;;;;;;3.60;99.90;;;;;;5001651;28;19930;-72
2023/01/24 14:27:36;;;;;;;;;;;3.60;99.90;;;;;;5001418;28;19989;-73
2023/01/24 14:30:16;;;;;;;;;;;3.50;99.90;;;;;;5014477;28;19926;-72
2023/01/24 14:32:47;;;;;;;;;;;3.50;99.90;;;;;;4998792;28;19926;-73
2023/01/24 14:35:18;;;;;;;;;;;3.50;99.90;;;;;;4996920;28;19926;-72
2023/01/24 14:37:45;;;;;;;;;;;3.50;99.90;;;;;;5002416;28;19929;-70
2023/01/24 14:40:13;;;;;;;;;;;3.50;99.90;;;;;;4998520;28;19926;-70
2023/01/24 14:42:39;;;;;;;;;;;3.40;99.90;;;;;;4999356;28;19980;-73
2023/01/24 14:45:12;;;;;;;;;;;3.40;99.90;;;;;;4999698;28;19960;-72
2023/01/24 14:47:39;;;;;;;;;;;3.40;99.90;;;;;;5003769;28;19929;-71
2023/01/24 14:50:20;;;;;;;;;;;3.40;99.90;;;;;;4999006;28;20024;-71
2023/01/24 14:52:47;;;;;;;;;;;3.40;99.90;;;;;;4985637;28;19988;-73
2023/01/24 14:55:27;;;;;;;;;;;3.40;99.90;;;;;;4991746;28;19926;-73
2023/01/24 14:57:54;;;;;;;;;;;3.30;99.90;;;;;;4999411;28;19936;-74
2023/01/24 15:00:22;;;;;;;;;;;3.30;99.90;;;;;;4989252;28;19925;-73
2023/01/24 15:02:52;;;;;;;;;;;3.30;99.90;;;;;;4997200;28;20360;-73
2023/01/24 15:05:25;;;;;;;;;;;3.20;99.90;;;;;;4991290;28;19961;-70
2023/01/24 15:07:52;;;;;;;;;;;3.20;99.90;;;;;;4992945;28;19926;-72
2023/01/24 15:10:22;;;;;;;;;;;3.20;99.90;;;;;;4988202;28;20126;-70
2023/01/24 15:12:52;;;;;;;;;;;3.10;99.90;;;;;;5004146;28;19925;-67
2023/01/24 15:15:19;;;;;;;;;;;3.10;99.90;;;;;;4999493;28;19938;-68
2023/01/24 15:17:47;;;;;;;;;;;3.10;99.90;;;;;;4992041;28;19977;-70
2023/01/24 15:20:16;;;;;;;;;;;3.10;99.90;;;;;;4995832;28;19976;-70
2023/01/24 15:22:49;;;;;;;;;;;3.00;99.90;;;;;;4992150;28;19930;-70
2023/01/24 15:25:19;;;;;;;;;;;2.90;99.90;;;;;;4996238;28;19968;-70
2023/01/24 15:27:45;;;;;;;;;;;2.90;99.90;;;;;;4995018;28;19965;-70
2023/01/24 15:30:13;;;;;;;;;;;2.80;99.90;;;;;;5001085;28;19925;-71
2023/01/24 15:32:43;;;;;;;;;;;2.80;99.90;;;;;;4996460;28;20219;-76
2023/01/24 15:35:13;;;;;;;;;;;2.70;99.90;;;;;;4999928;28;19937;-75
2023/01/24 15:37:40;;;;;;;;;;;2.70;99.90;;;;;;4995472;28;19926;-69
2023/01/24 15:40:14;;;;;;;;;;;2.70;99.90;;;;;;5003748;28;20345;-70
2023/01/24 15:45:29;;;;;;;;;;;2.60;99.90;;;;;;5009981;28;19933;-73
2023/01/24 15:48:12;;;;;;;;;;;2.60;99.90;;;;;;4998557;28;19976;-69
2023/01/24 15:51:09;;;;;;;;;;;2.60;99.90;;;;;;4997563;28;20376;-69
2023/01/24 15:53:37;;;;;;;;;;;2.60;99.90;;;;;;4995608;28;19925;-71
2023/01/24 15:59:34;;;;;;;;;;;2.50;99.90;;;;;;4981854;28;19921;-70
2023/01/24 16:02:01;;;;;;;;;;;2.50;99.90;;;;;;4990940;28;19948;-70
2023/01/24 16:04:27;;;;;;;;;;;2.50;99.90;;;;;;4998002;28;19925;-68
2023/01/24 16:06:54;;;;;;;;;;;2.50;99.90;;;;;;4997517;28;19952;-71
2023/01/24 16:09:21;;;;;;;;;;;2.40;99.90;;;;;;4999564;28;20282;-71
2023/01/24 16:11:48;;;;;;;;;;;2.40;99.90;;;;;;5002507;28;19930;-69
2023/01/24 16:14:18;;;;;;;;;;;2.30;99.90;;;;;;4998400;28;20401;-70
2023/01/24 16:16:47;;;;;;;;;;;2.30;99.90;;;;;;5001946;28;19926;-71
2023/01/24 16:19:15;;;;;;;;;;;2.30;99.90;;;;;;5003629;28;19930;-67
2023/01/24 16:21:42;;;;;;;;;;;2.30;99.90;;;;;;5012795;28;20459;-71
2023/01/24 16:24:08;;;;;;;;;;;2.30;99.90;;;;;;5004252;28;19936;-69
2023/01/24 16:26:35;;;;;;;;;;;2.30;99.90;;;;;;5001864;28;19926;-69
2023/01/24 16:29:02;;;;;;;;;;;2.30;99.90;;;;;;4997620;28;19926;-69
2023/01/24 16:31:29;;;;;;;;;;;2.20;99.90;;;;;;5005521;28;19940;-70
2023/01/24 16:33:58;;;;;;;;;;;2.20;99.90;;;;;;5012316;28;19932;-69
2023/01/24 16:36:24;;;;;;;;;;;2.20;99.90;;;;;;5012748;28;19926;-69
2023/01/24 16:38:51;;;;;;;;;;;2.20;99.90;;;;;;5009118;28;19930;-68
2023/01/24 16:41:18;;;;;;;;;;;2.20;99.90;;;;;;5011630;28;19948;-70
2023/01/24 16:43:45;;;;;;;;;;;2.10;99.90;;;;;;5007926;28;20320;-70
2023/01/24 16:46:17;;;;;;;;;;;2.10;99.90;;;;;;5003850;28;19925;-69
2023/01/24 16:48:43;;;;;;;;;;;2.10;99.90;;;;;;5008523;28;20401;-69
2023/01/24 16:51:12;;;;;;;;;;;2.10;99.90;;;;;;4997952;28;19930;-69
2023/01/24 16:53:39;;;;;;;;;;;2.10;99.90;;;;;;5010274;28;20348;-70
2023/01/24 16:56:06;;;;;;;;;;;2.10;99.90;;;;;;5003030;28;19926;-68
2023/01/24 16:58:33;;;;;;;;;;;2.10;99.90;;;;;;5013876;28;20359;-68
2023/01/24 17:01:00;;;;;;;;;;;2.10;99.90;;;;;;5005075;28;19929;-69
2023/01/24 17:03:26;;;;;;;;;;;2.10;99.90;;;;;;5012886;28;19926;-69
2023/01/24 17:05:53;;;;;;;;;;;2.10;99.90;;;;;;5009698;28;19929;-69
2023/01/24 17:08:21;;;;;;;;;;;2.00;99.90;;;;;;5004605;28;19976;-70
2023/01/24 17:10:48;;;;;;;;;;;2.00;99.90;;;;;;5007181;28;19933;-70
2023/01/24 17:13:15;;;;;;;;;;;2.00;99.90;;;;;;4998634;28;19976;-69
2023/01/24 17:15:42;;;;;;;;;;;2.00;99.90;;;;;;5005392;28;19926;-69
2023/01/24 17:18:08;;;;;;;;;;;2.00;99.90;;;;;;4998792;28;20363;-69
2023/01/24 17:20:35;;;;;;;;;;;2.00;99.90;;;;;;5007377;28;19925;-70
2023/01/24 17:23:02;;;;;;;;;;;2.00;99.90;;;;;;5007967;28;19926;-69
2023/01/24 17:25:30;;;;;;;;;;;2.00;99.90;;;;;;5004241;28;19971;-68
2023/01/24 17:27:57;;;;;;;;;;;2.00;99.90;;;;;;5005706;28;19926;-69
2023/01/24 17:30:24;;;;;;;;;;;2.00;99.90;;;;;;4997284;28;19929;-67
2023/01/24 17:32:51;;;;;;;;;;;2.00;99.90;;;;;;5004504;28;19988;-69
2023/01/24 17:35:17;;;;;;;;;;;2.00;99.90;;;;;;4999110;28;19925;-69
2023/01/24 17:37:44;;;;;;;;;;;2.00;99.90;;;;;;5005141;28;20284;-69
2023/01/24 17:40:12;;;;;;;;;;;2.00;99.90;;;;;;5003970;28;19930;-69
2023/01/24 17:42:43;;;;;;;;;;;2.00;99.90;;;;;;5012947;28;19925;-68
2023/01/24 17:45:10;;;;;;;;;;;2.00;99.90;;;;;;4999991;28;19980;-70
2023/01/24 17:47:36;;;;;;;;;;;2.00;99.90;;;;;;4996069;28;20421;-71
2023/01/24 17:50:03;;;;;;;;;;;2.00;99.90;;;;;;4993070;28;19933;-69
2023/01/24 17:52:31;;;;;;;;;;;2.00;99.90;;;;;;4993413;28;20343;-69
2023/01/24 17:54:57;;;;;;;;;;;2.00;99.90;;;;;;5011553;23;19929;-71
2023/01/24 17:57:24;;;;;;;;;;;2.00;99.90;;;;;;5011446;28;20328;-70
2023/01/24 17:59:52;;;;;;;;;;;2.00;99.90;;;;;;5004418;28;19925;-71
2023/01/24 18:02:19;;;;;;;;;;;2.00;99.90;;;;;;5010409;28;19980;-74
2023/01/24 18:04:46;;;;;;;;;;;2.00;99.90;;;;;;4995970;28;19929;-70
2023/01/24 18:07:12;;;;;;;;;;;2.00;99.90;;;;;;4975314;28;19933;-70
2023/01/24 18:09:39;;;;;;;;;;;2.00;99.90;;;;;;4973050;28;19930;-71
2023/01/24 18:12:06;;;;;;;;;;;2.00;99.90;;;;;;4984157;28;19934;-70
2023/01/24 18:14:33;;;;;;;;;;;2.00;99.90;;;;;;4986212;28;19930;-71
2023/01/24 18:17:01;;;;;;;;;;;2.00;99.90;;;;;;4988768;28;19925;-71
2023/01/24 18:19:28;;;;;;;;;;;1.90;99.90;;;;;;4983821;28;19926;-71
2023/01/24 18:21:54;;;;;;;;;;;1.90;99.90;;;;;;4988738;28;19934;-71
2023/01/24 18:24:21;;;;;;;;;;;1.90;99.90;;;;;;4977836;28;20385;-70
2023/01/24 18:26:48;;;;;;;;;;;1.90;99.90;;;;;;4989119;28;19930;-70
2023/01/24 18:29:15;;;;;;;;;;;1.90;99.90;;;;;;4986399;28;20475;-71
2023/01/24 18:31:42;;;;;;;;;;;1.90;99.90;;;;;;4989926;28;19961;-71
2023/01/24 18:34:10;;;;;;;;;;;1.90;99.90;;;;;;4987408;28;19926;-70
2023/01/24 18:36:38;;;;;;;;;;;1.90;99.90;;;;;;4983062;28;19930;-71
2023/01/24 18:39:04;;;;;;;;;;;1.90;99.90;;;;;;4989382;28;19958;-70
2023/01/24 18:41:32;;;;;;;;;;;2.00;99.90;;;;;;4989295;28;19934;-71
2023/01/24 18:43:59;;;;;;;;;;;2.00;99.90;;;;;;4988517;28;19930;-71
2023/01/24 18:46:26;;;;;;;;;;;1.90;99.90;;;;;;4989445;28;19926;-72
2023/01/24 18:48:53;;;;;;;;;;;1.90;99.90;;;;;;4971312;28;19930;-71
2023/01/24 18:51:21;;;;;;;;;;;1.90;99.90;;;;;;4989185;28;19926;-71
2023/01/24 18:53:51;;;;;;;;;;;1.90;99.90;;;;;;4986756;28;20309;-71